Time;durP1;ratioP1;P1;durP2;ratioP2;P2;SDS_P1;SDS_P2;PMS_P1;PMS_P2;Temp;Humidity;BMP_temperature;BMP_pressure;BME280_temperature;BME280_humidity;BME280_pressure;Samples;Min_cycle;Max_cycle;Signal;HPM_P1;HPM_P2
2023/05/20 00:03:52;;;;;;;7.28;4.95;;;18.80;78.90;;;;;;10941190;32;20027;-71
2023/05/20 00:09:55;;;;;;;6.80;4.50;;;18.80;79.00;;;;;;10941792;32;20157;-71
2023/05/20 00:16:19;;;;;;;6.03;4.60;;;18.70;79.20;;;;;;10941624;32;20014;-71
2023/05/20 00:22:21;;;;;;;6.10;4.22;;;18.80;79.10;;;;;;10942111;32;20053;-72
2023/05/20 00:28:23;;;;;;;5.70;3.85;;;18.70;79.20;;;;;;10941626;32;20007;-71
2023/05/20 00:34:25;;;;;;;4.37;3.12;;;18.70;79.00;;;;;;10940797;32;20384;-71
2023/05/20 00:40:27;;;;;;;4.82;3.42;;;18.70;79.00;;;;;;10940568;32;20024;-73
2023/05/20 00:46:29;;;;;;;4.82;3.58;;;18.70;78.90;;;;;;10946534;32;20024;-72
2023/05/20 00:52:32;;;;;;;6.00;3.90;;;18.80;79.20;;;;;;10929901;32;20049;-72
2023/05/20 00:58:36;;;;;;;5.65;3.62;;;18.80;78.90;;;;;;10947948;32;20019;-72
2023/05/20 01:04:40;;;;;;;7.93;5.22;;;18.80;78.90;;;;;;10947707;32;20015;-72
2023/05/20 01:10:46;;;;;;;5.07;3.65;;;18.80;79.00;;;;;;10948106;32;20291;-71
2023/05/20 01:17:09;;;;;;;5.70;4.28;;;18.80;78.70;;;;;;10935163;32;20187;-71
2023/05/20 01:23:11;;;;;;;6.70;3.97;;;18.80;79.30;;;;;;10947098;32;20346;-72
2023/05/20 01:29:17;;;;;;;7.20;5.37;;;18.80;79.30;;;;;;10929633;32;20043;-72
2023/05/20 01:35:21;;;;;;;5.95;3.67;;;18.80;79.10;;;;;;10946684;32;20418;-72
2023/05/20 01:41:26;;;;;;;5.90;3.58;;;18.80;79.10;;;;;;10947056;32;20324;-72
2023/05/20 01:47:28;;;;;;;5.40;3.67;;;18.80;79.20;;;;;;10945686;32;20053;-72
2023/05/20 01:53:30;;;;;;;6.18;3.45;;;18.80;79.10;;;;;;10943059;32;20405;-72
2023/05/20 01:59:32;;;;;;;6.50;4.05;;;18.80;79.10;;;;;;10945652;32;20039;-72
2023/05/20 02:05:35;;;;;;;6.37;4.28;;;18.80;79.20;;;;;;10946240;32;20011;-72
2023/05/20 02:11:39;;;;;;;5.97;3.67;;;18.80;79.10;;;;;;10944768;32;20053;-72
2023/05/20 02:17:42;;;;;;;6.28;3.78;;;18.80;79.40;;;;;;10945872;32;20003;-72
2023/05/20 02:23:44;;;;;;;5.05;3.53;;;18.70;79.20;;;;;;10944334;32;20031;-72
2023/05/20 02:29:47;;;;;;;5.70;3.62;;;18.80;79.40;;;;;;10943144;32;20050;-72
2023/05/20 02:35:49;;;;;;;5.43;3.05;;;18.80;79.70;;;;;;10945677;32;20050;-72
2023/05/20 02:41:52;;;;;;;5.12;3.15;;;18.80;79.70;;;;;;10943640;32;20050;-72
2023/05/20 02:47:54;;;;;;;5.03;3.30;;;18.80;79.60;;;;;;10942362;32;20096;-72
2023/05/20 02:53:57;;;;;;;5.05;3.95;;;18.80;79.80;;;;;;10929412;32;20049;-72
2023/05/20 02:59:59;;;;;;;4.82;2.95;;;18.80;79.90;;;;;;10943480;32;20073;-72
2023/05/20 03:06:01;;;;;;;5.37;3.25;;;18.70;80.30;;;;;;10944161;32;20023;-72
2023/05/20 03:12:03;;;;;;;2.97;2.37;;;18.70;80.30;;;;;;10943254;32;20023;-72
2023/05/20 03:18:07;;;;;;;3.83;2.62;;;18.80;80.30;;;;;;10943601;32;20007;-72
2023/05/20 03:24:09;;;;;;;3.42;2.47;;;18.80;80.30;;;;;;10942795;32;20050;-72
2023/05/20 03:30:12;;;;;;;4.65;3.35;;;18.70;80.30;;;;;;10942765;32;20015;-72
2023/05/20 03:36:14;;;;;;;5.78;2.83;;;18.70;80.30;;;;;;10940659;32;20397;-72
2023/05/20 03:42:16;;;;;;;4.80;2.90;;;18.70;80.30;;;;;;10939093;32;20058;-72
2023/05/20 03:48:19;;;;;;;4.93;3.15;;;18.70;80.40;;;;;;10928023;32;20062;-72
2023/05/20 03:54:21;;;;;;;3.83;2.72;;;18.60;80.30;;;;;;10941363;32;20037;-72
2023/05/20 04:00:24;;;;;;;4.00;2.80;;;18.60;80.40;;;;;;10941274;32;20260;-72
2023/05/20 04:06:26;;;;;;;4.32;2.60;;;18.60;80.40;;;;;;10942517;32;20196;-72
2023/05/20 04:12:31;;;;;;;3.72;2.53;;;18.60;80.40;;;;;;10928534;32;20006;-72
2023/05/20 04:18:37;;;;;;;3.10;2.15;;;18.60;80.30;;;;;;10944850;32;20019;-72
2023/05/20 04:24:40;;;;;;;3.12;2.20;;;18.60;80.40;;;;;;10948991;32;20027;-72
2023/05/20 04:30:43;;;;;;;4.10;2.22;;;18.60;80.60;;;;;;10948264;32;20023;-72
2023/05/20 04:36:47;;;;;;;2.80;1.85;;;18.70;80.80;;;;;;10936649;32;20428;-72
2023/05/20 04:42:51;;;;;;;3.67;2.17;;;18.60;81.00;;;;;;10947857;32;20053;-72
2023/05/20 04:48:55;;;;;;;3.28;2.20;;;18.60;81.00;;;;;;10936137;32;20023;-72
2023/05/20 04:55:00;;;;;;;6.80;2.30;;;18.60;81.20;;;;;;10947479;32;20014;-72
2023/05/20 05:01:03;;;;;;;4.00;2.22;;;18.60;81.20;;;;;;10947832;32;20050;-71
2023/05/20 05:07:04;;;;;;;3.22;2.03;;;18.60;81.40;;;;;;10948280;32;20412;-72
2023/05/20 05:13:07;;;;;;;4.32;2.55;;;18.70;81.30;;;;;;10947558;32;20325;-72
2023/05/20 05:19:10;;;;;;;3.33;2.65;;;18.70;81.40;;;;;;10947942;32;20305;-72
2023/05/20 05:25:13;;;;;;;3.40;2.30;;;18.70;81.40;;;;;;10932398;32;20046;-72
2023/05/20 05:31:16;;;;;;;5.57;2.87;;;18.70;81.60;;;;;;10933630;32;20054;-72
2023/05/20 05:37:19;;;;;;;3.70;2.75;;;18.80;81.50;;;;;;10933626;32;20049;-72
2023/05/20 05:43:21;;;;;;;5.43;3.17;;;18.80;81.40;;;;;;10945436;32;20333;-72
2023/05/20 05:49:23;;;;;;;4.43;3.75;;;18.80;80.70;;;;;;10945283;32;20026;-72
2023/05/20 05:55:25;;;;;;;4.40;3.30;;;18.80;80.30;;;;;;10931891;32;20431;-72
2023/05/20 06:01:28;;;;;;;7.15;5.05;;;18.80;79.90;;;;;;10945052;32;20023;-71
2023/05/20 06:07:30;;;;;;;4.50;3.30;;;18.80;79.70;;;;;;10940974;32;20019;-72
2023/05/20 06:13:32;;;;;;;5.93;4.43;;;18.80;79.90;;;;;;10930594;32;20031;-72
2023/05/20 06:19:34;;;;;;;7.70;4.20;;;18.90;79.50;;;;;;10945650;32;20381;-71
2023/05/20 06:25:37;;;;;;;6.78;4.40;;;19.00;80.20;;;;;;10944197;32;20054;-71
2023/05/20 06:31:39;;;;;;;7.43;4.90;;;19.00;80.00;;;;;;10943927;32;20019;-72
2023/05/20 06:37:42;;;;;;;6.22;5.00;;;19.10;80.00;;;;;;10943563;32;20015;-69
2023/05/20 06:43:44;;;;;;;9.77;5.05;;;19.10;79.60;;;;;;10942931;32;20342;-72
2023/05/20 06:49:46;;;;;;;8.65;6.18;;;19.20;79.40;;;;;;10929796;32;20403;-73
2023/05/20 06:55:48;;;;;;;8.55;6.53;;;19.30;79.70;;;;;;10943260;32;20053;-72
2023/05/20 07:01:51;;;;;;;9.15;5.95;;;19.30;80.50;;;;;;10942973;32;20045;-73
2023/05/20 07:07:53;;;;;;;9.27;6.78;;;19.30;80.10;;;;;;10941739;32;20023;-72
2023/05/20 07:13:56;;;;;;;8.82;6.62;;;19.30;79.90;;;;;;10938130;32;20019;-72
2023/05/20 07:19:59;;;;;;;7.80;5.10;;;19.30;79.80;;;;;;10942580;32;20041;-71
2023/05/20 07:26:02;;;;;;;12.25;7.32;;;19.40;79.30;;;;;;10939687;32;20062;-74
2023/05/20 07:32:05;;;;;;;10.75;5.82;;;19.30;79.20;;;;;;10904082;32;20042;-72
2023/05/20 07:38:10;;;;;;;12.98;8.50;;;19.30;79.50;;;;;;10902041;32;20019;-72
2023/05/20 07:44:12;;;;;;;8.90;6.05;;;19.30;79.50;;;;;;10903717;32;20019;-72
2023/05/20 07:50:14;;;;;;;10.88;7.75;;;19.40;80.00;;;;;;10905532;27;20049;-72
2023/05/20 07:56:17;;;;;;;9.07;6.72;;;19.40;79.80;;;;;;10748920;33;20137;-72
2023/05/20 08:02:20;;;;;;;7.72;5.65;;;19.50;79.40;;;;;;10750745;33;20343;-72
2023/05/20 08:08:23;;;;;;;6.90;5.03;;;19.50;79.10;;;;;;10750486;33;20025;-72
2023/05/20 08:14:26;;;;;;;10.00;6.97;;;19.40;79.30;;;;;;10737708;33;20036;-72
2023/05/20 08:20:29;;;;;;;9.30;6.68;;;19.50;79.80;;;;;;10750351;33;20017;-73
2023/05/20 08:26:32;;;;;;;10.82;5.68;;;19.50;79.40;;;;;;10736858;33;20059;-72
2023/05/20 08:32:35;;;;;;;11.90;6.75;;;19.60;79.00;;;;;;10750114;33;20024;-72
2023/05/20 08:38:37;;;;;;;10.38;7.62;;;19.60;79.30;;;;;;10746636;33;20052;-73
2023/05/20 08:44:44;;;;;;;7.15;6.18;;;19.60;79.60;;;;;;10736208;33;20411;-74
2023/05/20 08:50:51;;;;;;;9.93;6.65;;;19.70;79.70;;;;;;10766587;32;20082;-72
2023/05/20 08:56:54;;;;;;;10.27;7.80;;;19.70;79.80;;;;;;10902897;32;20015;-73
2023/05/20 09:02:59;;;;;;;11.25;9.77;;;19.80;80.40;;;;;;10903005;32;20007;-73
2023/05/20 09:09:01;;;;;;;10.70;8.43;;;19.90;79.80;;;;;;10895602;32;20015;-73
2023/05/20 09:15:05;;;;;;;11.68;7.43;;;20.10;79.60;;;;;;10908972;32;20419;-73
2023/05/20 09:21:09;;;;;;;11.38;7.40;;;20.30;78.70;;;;;;10908838;32;20054;-74
2023/05/20 09:27:12;;;;;;;8.18;6.35;;;20.30;78.50;;;;;;10894952;32;20020;-73
2023/05/20 09:33:14;;;;;;;11.85;10.50;;;20.20;78.50;;;;;;10908471;32;20038;-72
2023/05/20 09:39:29;;;;;;;11.73;7.43;;;20.30;78.60;;;;;;10908176;32;20377;-73
2023/05/20 09:45:32;;;;;;;11.85;8.98;;;20.30;77.70;;;;;;10907126;32;20307;-72
2023/05/20 09:51:34;;;;;;;11.00;9.88;;;20.20;78.00;;;;;;10870788;32;20021;-72
2023/05/20 09:57:37;;;;;;;11.48;9.75;;;20.20;78.10;;;;;;10741209;33;20044;-73
2023/05/20 10:03:39;;;;;;;11.38;10.18;;;20.20;78.30;;;;;;10753867;33;20338;-72
2023/05/20 10:09:56;;;;;;;13.98;10.23;;;20.10;78.60;;;;;;10739002;33;20037;-72
2023/05/20 10:16:45;;;;;;;11.93;10.48;;;20.20;78.50;;;;;;10749531;33;20020;-73
2023/05/20 10:22:56;;;;;;;15.83;11.37;;;20.20;78.90;;;;;;10753264;33;20048;-72
2023/05/20 10:28:58;;;;;;;16.42;12.48;;;20.30;79.50;;;;;;10753092;33;20327;-71
2023/05/20 10:35:03;;;;;;;13.75;11.43;;;20.30;79.60;;;;;;10752992;33;20021;-73
2023/05/20 10:41:12;;;;;;;11.77;9.18;;;20.30;79.70;;;;;;10750204;33;20415;-74
2023/05/20 10:47:14;;;;;;;;;;;20.30;78.70;;;;;;10750533;33;20441;-72
2023/05/20 10:53:16;;;;;;;11.43;9.63;;;20.40;78.40;;;;;;10739622;33;20242;-73
2023/05/20 10:59:20;;;;;;;14.38;12.55;;;20.40;78.80;;;;;;10797206;32;20055;-73
2023/05/20 11:05:25;;;;;;;13.27;9.90;;;20.30;79.20;;;;;;10752177;33;20021;-73
2023/05/20 11:11:27;;;;;;;13.82;10.55;;;20.30;79.30;;;;;;10751955;33;20090;-73
2023/05/20 11:17:30;;;;;;;17.05;11.23;;;20.30;79.00;;;;;;10751837;33;20039;-71
2023/05/20 11:23:32;;;;;;;13.88;11.15;;;20.30;79.20;;;;;;10744944;33;20055;-70
2023/05/20 11:29:34;;;;;;;16.77;12.88;;;20.40;80.00;;;;;;10750949;33;20033;-73
2023/05/20 11:35:36;;;;;;;14.40;11.52;;;20.40;80.10;;;;;;10751468;33;20043;-73
2023/05/20 11:41:38;;;;;;;13.60;10.30;;;20.60;80.50;;;;;;10735448;33;20025;-73
2023/05/20 11:47:40;;;;;;;11.57;8.27;;;20.60;80.20;;;;;;10751075;33;20021;-73
2023/05/20 11:53:42;;;;;;;10.43;8.13;;;20.70;79.30;;;;;;10750872;33;20039;-72
2023/05/20 11:59:46;;;;;;;12.70;10.38;;;20.60;79.20;;;;;;10750831;33;20063;-73
2023/05/20 12:05:50;;;;;;;10.40;8.57;;;20.70;79.40;;;;;;10737407;33;20032;-73
2023/05/20 12:11:52;;;;;;;13.70;10.10;;;20.60;79.40;;;;;;10750549;33;20044;-73
2023/05/20 12:17:55;;;;;;;11.95;10.40;;;20.60;79.50;;;;;;10750460;33;20013;-74
2023/05/20 12:23:58;;;;;;;10.82;8.45;;;20.60;79.70;;;;;;10750264;33;20052;-73
2023/05/20 12:30:00;;;;;;;9.95;7.00;;;20.60;79.30;;;;;;10750333;33;20005;-73
2023/05/20 12:36:02;;;;;;;12.15;8.77;;;20.70;79.00;;;;;;10736104;33;20037;-73
2023/05/20 12:42:05;;;;;;;10.65;6.40;;;20.80;78.70;;;;;;10754479;33;20043;-73
2023/05/20 12:48:07;;;;;;;10.23;7.07;;;20.70;78.50;;;;;;10731965;32;20461;-72
2023/05/20 12:54:09;;;;;;;11.70;6.82;;;20.70;78.50;;;;;;10755829;33;20039;-73
2023/05/20 13:00:12;;;;;;;9.98;7.37;;;20.60;78.40;;;;;;10755774;33;20048;-72
2023/05/20 13:06:14;;;;;;;9.02;6.53;;;20.50;78.50;;;;;;10755598;33;20308;-73
2023/05/20 13:12:16;;;;;;;10.10;8.00;;;20.50;78.40;;;;;;10755415;33;20379;-75
2023/05/20 13:18:18;;;;;;;10.77;8.05;;;20.50;78.50;;;;;;10751668;33;20036;-75
2023/05/20 13:24:20;;;;;;;10.70;8.48;;;20.50;78.70;;;;;;10754569;33;20055;-75
2023/05/20 13:30:22;;;;;;;10.38;7.87;;;20.50;79.30;;;;;;10751044;33;20013;-74
2023/05/20 13:36:24;;;;;;;12.98;9.70;;;20.40;79.60;;;;;;10751075;33;20021;-75
2023/05/20 13:42:26;;;;;;;11.93;6.90;;;20.40;79.40;;;;;;10754507;33;20021;-74
2023/05/20 13:48:28;;;;;;;10.88;7.65;;;20.50;79.30;;;;;;10754145;33;20045;-74
2023/05/20 13:54:31;;;;;;;10.40;7.37;;;20.50;79.20;;;;;;10751264;33;20059;-74
2023/05/20 14:00:37;;;;;;;8.98;6.65;;;20.60;79.00;;;;;;10750113;33;20047;-74
2023/05/20 14:06:40;;;;;;;9.50;6.85;;;20.80;78.80;;;;;;10753021;33;20047;-74
2023/05/20 14:12:46;;;;;;;10.75;7.80;;;20.80;78.50;;;;;;10753847;33;20059;-74
2023/05/20 14:18:48;;;;;;;10.48;7.30;;;20.90;78.20;;;;;;10740609;33;20330;-74
2023/05/20 14:24:50;;;;;;;7.60;6.05;;;21.00;78.10;;;;;;10754635;33;20025;-73
2023/05/20 14:30:53;;;;;;;8.43;6.12;;;21.10;78.00;;;;;;10753309;33;20012;-73
2023/05/20 14:36:55;;;;;;;11.02;6.78;;;21.10;78.00;;;;;;10754880;33;20387;-73
2023/05/20 14:42:58;;;;;;;7.82;5.37;;;21.10;77.90;;;;;;10753699;33;20052;-73
2023/05/20 14:49:00;;;;;;;8.90;5.72;;;21.20;77.60;;;;;;10752737;33;20017;-73
2023/05/20 14:55:02;;;;;;;10.50;8.90;;;21.30;77.50;;;;;;10748394;33;20033;-73
2023/05/20 15:01:04;;;;;;;11.88;6.43;;;21.30;77.30;;;;;;10751537;33;20040;-72
2023/05/20 15:07:06;;;;;;;7.93;5.72;;;21.40;77.20;;;;;;10749553;33;20055;-72
2023/05/20 15:13:09;;;;;;;9.40;6.90;;;21.40;77.10;;;;;;10750403;33;20036;-72
2023/05/20 15:19:12;;;;;;;8.38;5.68;;;21.30;77.00;;;;;;10752237;33;20017;-72
2023/05/20 15:25:14;;;;;;;12.27;6.03;;;21.40;77.00;;;;;;10735357;33;20044;-72
2023/05/20 15:31:16;;;;;;;12.05;5.78;;;21.30;77.00;;;;;;10752822;33;20025;-72
2023/05/20 15:37:19;;;;;;;8.40;5.97;;;21.40;77.00;;;;;;10752007;33;20047;-72
2023/05/20 15:43:21;;;;;;;10.25;6.10;;;21.40;76.90;;;;;;10751736;33;20047;-72
2023/05/20 15:49:23;;;;;;;8.57;6.12;;;21.30;76.80;;;;;;10739319;33;20020;-72
2023/05/20 15:55:25;;;;;;;9.55;5.60;;;21.30;76.80;;;;;;10752803;27;20063;-72
2023/05/20 16:01:28;;;;;;;7.80;5.68;;;21.30;76.80;;;;;;10750204;33;20025;-72
2023/05/20 16:07:31;;;;;;;7.37;5.60;;;21.30;76.70;;;;;;10840333;32;20039;-73
2023/05/20 16:13:33;;;;;;;8.93;5.72;;;21.40;76.60;;;;;;10907513;32;20024;-73
2023/05/20 16:19:35;;;;;;;12.43;7.15;;;21.40;76.60;;;;;;10831577;32;20064;-72
2023/05/20 16:25:37;;;;;;;9.73;6.22;;;21.40;76.70;;;;;;10757925;33;20052;-72
2023/05/20 16:31:39;;;;;;;9.40;6.93;;;21.30;76.70;;;;;;10743226;33;20040;-72
2023/05/20 16:37:43;;;;;;;12.02;8.18;;;21.30;76.90;;;;;;10752722;33;20343;-72
2023/05/20 16:43:45;;;;;;;9.43;7.10;;;21.30;77.10;;;;;;10756718;33;20055;-72
2023/05/20 16:49:47;;;;;;;13.38;8.20;;;21.10;77.30;;;;;;10757118;33;20047;-72
2023/05/20 16:55:50;;;;;;;11.45;7.18;;;21.00;77.50;;;;;;10742831;33;20063;-72
2023/05/20 17:01:52;;;;;;;12.48;7.70;;;21.00;77.60;;;;;;10756709;33;20103;-72
2023/05/20 17:07:58;;;;;;;9.77;6.97;;;20.90;77.60;;;;;;10742014;33;20320;-72
2023/05/20 17:14:01;;;;;;;10.63;7.78;;;20.90;77.60;;;;;;10756328;33;20004;-73
2023/05/20 17:20:04;;;;;;;11.45;8.55;;;20.90;77.60;;;;;;10756350;33;20323;-73
2023/05/20 17:26:06;;;;;;;9.68;7.60;;;20.90;77.60;;;;;;10755601;33;20051;-72
2023/05/20 17:32:10;;;;;;;11.50;7.37;;;20.80;77.80;;;;;;10754827;32;20390;-73
2023/05/20 17:38:34;;;;;;;9.43;7.20;;;20.80;77.80;;;;;;10755933;33;20025;-73
2023/05/20 17:44:36;;;;;;;12.98;8.95;;;20.80;77.80;;;;;;10755185;33;20331;-72
2023/05/20 17:50:38;;;;;;;13.23;10.85;;;20.80;78.00;;;;;;10754314;33;20083;-73
2023/05/20 17:56:52;;;;;;;10.52;7.53;;;20.70;78.00;;;;;;10755488;33;20048;-73
2023/05/20 18:02:58;;;;;;;12.20;9.40;;;20.70;78.00;;;;;;10755360;33;20039;-72
2023/05/20 18:09:00;;;;;;;12.77;10.63;;;20.70;77.80;;;;;;10741844;32;20036;-73
2023/05/20 18:15:05;;;;;;;14.68;10.52;;;20.60;77.70;;;;;;10753809;33;20017;-73
2023/05/20 18:21:07;;;;;;;12.95;8.93;;;20.50;77.90;;;;;;10751047;33;20055;-73
2023/05/20 18:27:09;;;;;;;14.52;9.80;;;20.50;78.10;;;;;;10754501;33;20021;-73
2023/05/20 18:33:12;;;;;;;14.18;11.20;;;20.40;78.40;;;;;;10753805;33;20024;-73
2023/05/20 18:39:19;;;;;;;16.00;11.57;;;20.40;78.40;;;;;;10754255;33;20025;-73
2023/05/20 18:45:23;;;;;;;12.77;8.75;;;20.30;78.30;;;;;;10752999;33;20037;-73
2023/05/20 18:51:26;;;;;;;12.13;9.23;;;20.30;78.50;;;;;;10753535;33;20029;-73
2023/05/20 18:57:28;;;;;;;12.90;9.38;;;20.30;78.80;;;;;;10740764;33;20051;-73
2023/05/20 19:03:30;;;;;;;11.77;9.05;;;20.20;79.00;;;;;;10753445;33;20339;-73
2023/05/20 19:09:32;;;;;;;13.10;9.35;;;20.20;79.10;;;;;;10753116;33;20063;-73
2023/05/20 19:15:34;;;;;;;12.37;8.43;;;20.20;78.90;;;;;;10752516;33;20016;-73
2023/05/20 19:21:40;;;;;;;9.38;7.90;;;20.20;79.00;;;;;;10751844;33;20020;-73
2023/05/20 19:27:42;;;;;;;15.95;10.35;;;20.20;79.00;;;;;;10752845;33;20319;-73
2023/05/20 19:33:46;;;;;;;15.98;10.05;;;20.00;79.40;;;;;;10751969;33;20047;-73
2023/05/20 19:39:49;;;;;;;12.50;9.60;;;20.00;79.60;;;;;;10737106;33;20032;-73
2023/05/20 19:45:51;;;;;;;11.77;8.93;;;20.10;79.30;;;;;;10751507;33;20376;-73
2023/05/20 19:51:53;;;;;;;13.90;10.45;;;20.00;79.20;;;;;;10751561;33;20013;-73
2023/05/20 19:57:56;;;;;;;15.30;7.78;;;20.00;79.20;;;;;;10752172;33;20029;-73
2023/05/20 20:03:58;;;;;;;14.60;10.38;;;20.00;79.10;;;;;;10738546;32;20037;-73
2023/05/20 20:09:59;;;;;;;11.57;9.13;;;20.10;79.10;;;;;;10737669;32;20028;-73
2023/05/20 20:16:01;;;;;;;13.13;9.27;;;20.00;79.20;;;;;;10750395;33;20036;-73
2023/05/20 20:22:07;;;;;;;13.48;9.63;;;20.00;79.50;;;;;;10750320;33;20020;-73
2023/05/20 20:28:14;;;;;;;11.52;8.85;;;19.90;79.60;;;;;;10750195;33;20021;-73
2023/05/20 20:34:17;;;;;;;13.30;10.05;;;19.90;79.80;;;;;;10745811;33;20020;-73
2023/05/20 20:40:22;;;;;;;13.45;9.63;;;19.80;80.20;;;;;;10749957;33;20052;-73
2023/05/20 20:46:26;;;;;;;16.42;12.13;;;19.80;80.40;;;;;;10749561;33;20025;-73
2023/05/20 20:52:29;;;;;;;13.85;10.15;;;19.80;80.50;;;;;;10749369;33;20445;-73
2023/05/20 20:58:52;;;;;;;14.40;10.60;;;19.80;80.50;;;;;;10749373;33;20046;-73
2023/05/20 21:04:57;;;;;;;16.48;12.35;;;19.80;80.50;;;;;;10755448;33;20020;-72
2023/05/20 21:11:00;;;;;;;12.45;9.73;;;19.80;80.90;;;;;;10755460;33;20304;-73
2023/05/20 21:17:02;;;;;;;12.30;9.38;;;19.70;81.00;;;;;;10753667;33;20055;-73
2023/05/20 21:23:04;;;;;;;11.88;9.60;;;19.80;81.00;;;;;;10754377;33;20032;-73
2023/05/20 21:29:06;;;;;;;15.13;10.38;;;19.70;81.20;;;;;;10754899;33;20009;-73
2023/05/20 21:35:08;;;;;;;11.15;8.23;;;19.70;81.50;;;;;;10750377;33;20059;-73
2023/05/20 21:41:10;;;;;;;9.82;6.43;;;19.70;81.60;;;;;;10750782;33;20331;-73
2023/05/20 21:47:12;;;;;;;10.70;7.97;;;19.70;81.60;;;;;;10769643;33;20054;-73
2023/05/20 21:53:14;;;;;;;9.25;7.00;;;19.70;81.60;;;;;;10741362;33;20020;-73
2023/05/20 21:59:16;;;;;;;10.55;8.55;;;19.70;81.70;;;;;;10754336;33;20052;-73
2023/05/20 22:05:19;;;;;;;15.00;10.73;;;19.70;81.80;;;;;;10754057;33;20043;-73
2023/05/20 22:11:22;;;;;;;11.15;8.27;;;19.60;81.90;;;;;;10754959;33;20338;-72
2023/05/20 22:17:24;;;;;;;8.65;7.28;;;19.50;82.10;;;;;;10753870;33;20017;-72
2023/05/20 22:23:27;;;;;;;11.75;7.37;;;19.60;82.20;;;;;;10740165;33;20059;-73
2023/05/20 22:29:31;;;;;;;8.32;6.00;;;19.50;82.50;;;;;;10753354;33;20074;-73
2023/05/20 22:35:33;;;;;;;18.20;7.95;;;19.60;82.60;;;;;;10753169;33;20024;-73
2023/05/20 22:41:34;;;;;;;8.20;6.12;;;19.60;82.60;;;;;;10752979;33;20051;-73
2023/05/20 22:48:00;;;;;;;8.30;6.07;;;19.50;82.60;;;;;;10752950;33;20029;-72
2023/05/20 22:54:02;;;;;;;8.30;5.82;;;19.60;82.70;;;;;;10751827;32;20049;-73
2023/05/20 23:00:06;;;;;;;7.72;5.37;;;19.60;82.60;;;;;;10752620;33;20063;-73
2023/05/20 23:06:08;;;;;;;8.18;5.75;;;19.60;82.50;;;;;;10738161;33;20332;-73
2023/05/20 23:12:10;;;;;;;7.57;6.05;;;19.60;82.50;;;;;;10752193;33;20021;-73
2023/05/20 23:18:12;;;;;;;7.50;5.68;;;19.60;82.40;;;;;;10752028;33;20039;-73
2023/05/20 23:24:15;;;;;;;7.00;5.30;;;19.60;82.30;;;;;;10751058;33;20047;-73
2023/05/20 23:30:17;;;;;;;7.37;4.90;;;19.60;82.20;;;;;;10751494;33;20021;-72
2023/05/20 23:36:19;;;;;;;7.65;4.37;;;19.60;82.10;;;;;;10738339;33;20083;-73
2023/05/20 23:42:21;;;;;;;8.43;5.78;;;19.60;82.10;;;;;;10751482;33;20020;-73
2023/05/20 23:48:25;;;;;;;7.25;5.25;;;19.60;82.10;;;;;;10727098;32;20086;-73
2023/05/20 23:54:28;;;;;;;6.82;4.62;;;19.50;82.10;;;;;;10277761;28;13251616;-73
